createdAt,value
2022-12-07T00:00:11.165Z,18.77
2022-12-07T00:03:00.532Z,17.40
2022-12-07T00:05:31.458Z,20.42
2022-12-07T00:08:00.914Z,16.98
2022-12-07T00:10:29.918Z,17.50
2022-12-07T00:12:59.202Z,16.52
2022-12-07T00:15:29.754Z,19.02
2022-12-07T00:17:59.056Z,17.75
2022-12-07T00:20:28.158Z,16.38
2022-12-07T00:22:57.552Z,18.40
2022-12-07T00:25:26.678Z,18.17
2022-12-07T00:27:57.577Z,17.10
2022-12-07T00:30:28.284Z,16.02
2022-12-07T00:32:57.651Z,17.13
2022-12-07T00:35:26.736Z,23.10
2022-12-07T00:37:56.112Z,16.03
2022-12-07T00:40:25.113Z,16.67
2022-12-07T00:42:54.436Z,17.02
2022-12-07T00:45:23.436Z,18.00
2022-12-07T00:47:54.190Z,17.02
2022-12-07T00:50:23.216Z,17.25
2022-12-07T00:52:52.629Z,17.83
2022-12-07T00:55:21.644Z,15.27
2022-12-07T00:57:50.928Z,16.27
2022-12-07T01:00:20.382Z,16.17
2022-12-07T01:02:49.779Z,15.35
2022-12-07T01:05:20.554Z,18.40
2022-12-07T01:07:49.984Z,14.80
2022-12-07T01:10:19.285Z,14.57
2022-12-07T01:12:48.755Z,15.70
2022-12-07T01:15:17.942Z,16.10
2022-12-07T01:17:47.436Z,14.85
2022-12-07T01:20:17.489Z,15.80
2022-12-07T01:22:48.391Z,16.15
2022-12-07T01:27:46.875Z,17.08
2022-12-07T01:30:16.505Z,17.75
2022-12-07T01:32:45.843Z,21.60
2022-12-07T01:35:14.863Z,22.90
2022-12-07T01:37:44.245Z,26.48
2022-12-07T01:40:16.012Z,27.52
2022-12-07T01:42:45.284Z,29.38
2022-12-07T01:45:39.306Z,27.50
2022-12-07T01:48:10.025Z,25.48
2022-12-07T01:53:12.216Z,21.25
2022-12-07T01:55:46.175Z,18.92
2022-12-07T01:58:17.239Z,17.38
2022-12-07T02:00:46.686Z,17.90
2022-12-07T02:03:20.971Z,18.55
2022-12-07T02:05:51.211Z,20.30
2022-12-07T02:08:21.021Z,19.80
2022-12-07T02:10:51.503Z,20.95
2022-12-07T02:13:24.137Z,20.00
2022-12-07T02:16:20.526Z,21.98
2022-12-07T02:19:02.784Z,23.65
2022-12-07T02:21:42.161Z,20.27
2022-12-07T02:24:37.815Z,19.77
2022-12-07T02:27:29.610Z,20.33
2022-12-07T02:30:04.146Z,20.90
2022-12-07T02:32:44.832Z,17.83
2022-12-07T02:35:19.511Z,19.38
2022-12-07T02:38:00.540Z,20.98
2022-12-07T02:40:37.163Z,17.17
2022-12-07T02:43:12.342Z,20.80
2022-12-07T02:45:46.596Z,18.77
2022-12-07T02:48:18.676Z,17.98
2022-12-07T02:50:50.740Z,14.95
2022-12-07T02:53:36.779Z,18.65
2022-12-07T02:56:13.007Z,14.00
2022-12-07T02:58:57.097Z,16.23
2022-12-07T03:01:37.472Z,16.85
2022-12-07T03:04:23.179Z,15.43
2022-12-07T03:07:00.291Z,13.32
2022-12-07T03:09:37.151Z,15.13
2022-12-07T03:12:15.125Z,17.33
2022-12-07T03:14:51.317Z,15.48
2022-12-07T03:17:27.343Z,12.32
2022-12-07T03:20:01.275Z,16.63
2022-12-07T03:22:35.620Z,13.68
2022-12-07T03:25:08.543Z,14.80
2022-12-07T03:27:43.239Z,13.60
2022-12-07T03:30:16.992Z,12.90
2022-12-07T03:32:52.018Z,12.23
2022-12-07T03:35:25.718Z,11.18
2022-12-07T03:37:59.373Z,10.15
2022-12-07T03:40:36.971Z,11.75
2022-12-07T03:43:07.071Z,12.02
2022-12-07T03:45:43.291Z,12.60
2022-12-07T03:48:24.927Z,11.15
2022-12-07T03:50:59.346Z,11.02
2022-12-07T03:53:36.783Z,10.40
2022-12-07T03:56:06.791Z,8.93
2022-12-07T04:01:06.044Z,8.70
2022-12-07T04:03:36.924Z,8.68
2022-12-07T04:06:06.413Z,10.07
2022-12-07T04:08:35.788Z,8.98
2022-12-07T04:11:04.873Z,9.55
2022-12-07T04:13:54.379Z,10.17
2022-12-07T04:16:23.678Z,9.40
2022-12-07T04:18:54.521Z,8.80
2022-12-07T04:21:23.614Z,8.30
2022-12-07T04:23:52.985Z,8.63
2022-12-07T04:26:22.048Z,7.63
2022-12-07T04:28:51.675Z,8.00
2022-12-07T04:31:20.678Z,9.35
2022-12-07T04:33:50.129Z,8.07
2022-12-07T04:36:21.478Z,8.88
2022-12-07T04:38:50.833Z,9.20
2022-12-07T04:41:19.813Z,7.30
2022-12-07T04:43:49.108Z,8.90
2022-12-07T04:46:18.094Z,6.75
2022-12-07T04:48:47.507Z,7.40
2022-12-07T04:51:17.865Z,7.30
2022-12-07T04:53:48.673Z,7.15
2022-12-07T04:56:18.348Z,8.73
2022-12-07T04:58:49.042Z,8.50
2022-12-07T05:03:48.088Z,7.75
2022-12-07T05:06:17.455Z,7.20
2022-12-07T05:08:48.396Z,8.52
2022-12-07T05:11:31.939Z,8.20
2022-12-07T05:14:02.341Z,6.95
2022-12-07T05:16:31.643Z,8.13
2022-12-07T05:19:01.841Z,7.75
2022-12-07T05:21:30.838Z,7.30
2022-12-07T05:24:01.708Z,7.80
2022-12-07T05:26:30.964Z,9.10
2022-12-07T05:29:00.929Z,9.95
2022-12-07T05:31:30.262Z,9.43
2022-12-07T05:33:59.639Z,8.50
2022-12-07T05:36:29.678Z,8.77
2022-12-07T05:41:46.929Z,9.27
2022-12-07T05:44:16.477Z,8.38
2022-12-07T05:46:45.615Z,7.75
2022-12-07T05:49:14.955Z,9.10
2022-12-07T05:51:44.020Z,9.32
2022-12-07T05:54:14.844Z,8.93
2022-12-07T05:56:43.881Z,8.65
2022-12-07T05:59:25.301Z,7.75
2022-12-07T06:01:55.880Z,7.72
2022-12-07T06:04:27.014Z,7.57
2022-12-07T06:06:56.319Z,6.75
2022-12-07T06:09:28.567Z,8.30
2022-12-07T06:12:21.086Z,6.57
2022-12-07T06:14:50.529Z,6.68
2022-12-07T06:17:19.752Z,6.78
2022-12-07T06:19:49.212Z,3.83
2022-12-07T06:22:18.592Z,4.22
2022-12-07T06:24:49.420Z,2.67
2022-12-07T06:27:18.490Z,3.67
2022-12-07T06:29:48.084Z,5.07
2022-12-07T06:32:17.588Z,4.43
2022-12-07T06:34:47.684Z,4.13
2022-12-07T06:37:16.828Z,3.15
2022-12-07T06:39:46.663Z,3.13
2022-12-07T06:42:17.119Z,17.13
2022-12-07T06:44:46.466Z,2.72
2022-12-07T06:50:05.680Z,2.97
2022-12-07T06:52:34.958Z,3.60
2022-12-07T06:55:04.528Z,6.03
2022-12-07T06:57:34.926Z,2.88
2022-12-07T07:00:05.254Z,4.20
2022-12-07T07:02:34.575Z,3.72
2022-12-07T07:05:04.429Z,4.90
2022-12-07T07:07:46.343Z,4.93
2022-12-07T07:10:23.007Z,2.65
2022-12-07T07:12:57.326Z,3.63
2022-12-07T07:15:27.049Z,3.53
2022-12-07T07:17:56.218Z,3.70
2022-12-07T07:20:25.833Z,3.93
2022-12-07T07:22:58.178Z,3.25
2022-12-07T07:25:27.496Z,5.10
2022-12-07T07:27:57.871Z,3.72
2022-12-07T07:30:27.540Z,4.30
2022-12-07T07:33:00.123Z,4.97
2022-12-07T07:35:30.141Z,4.82
2022-12-07T07:37:59.354Z,6.65
2022-12-07T07:40:29.802Z,6.80
2022-12-07T07:43:00.602Z,6.55
2022-12-07T07:45:30.716Z,8.07
2022-12-07T07:47:59.805Z,7.25
2022-12-07T07:50:29.098Z,8.83
2022-12-07T07:52:59.838Z,15.23
2022-12-07T07:55:29.279Z,9.98
2022-12-07T07:57:59.701Z,11.05
2022-12-07T08:00:29.225Z,8.95
2022-12-07T08:02:58.312Z,9.85
2022-12-07T08:05:27.695Z,7.70
2022-12-07T08:07:56.787Z,6.45
2022-12-07T08:10:27.009Z,7.20
2022-12-07T08:13:14.819Z,8.35
2022-12-07T08:15:47.048Z,7.88
2022-12-07T08:18:17.176Z,9.55
2022-12-07T08:23:16.024Z,8.55
2022-12-07T08:25:45.422Z,9.60
2022-12-07T08:28:14.416Z,8.20
2022-12-07T08:30:45.175Z,6.80
2022-12-07T08:33:14.258Z,8.68
2022-12-07T08:35:43.767Z,6.80
2022-12-07T08:38:12.841Z,10.90
2022-12-07T08:40:42.271Z,7.53
2022-12-07T08:43:11.321Z,9.13
2022-12-07T08:45:44.628Z,8.65
2022-12-07T08:48:18.306Z,8.98
2022-12-07T08:50:49.720Z,7.50
2022-12-07T08:53:19.314Z,7.22
2022-12-07T08:55:49.395Z,7.00
2022-12-07T08:58:18.589Z,8.48
2022-12-07T09:00:49.277Z,8.13
2022-12-07T09:03:18.432Z,11.50
2022-12-07T09:05:47.823Z,7.90
2022-12-07T09:08:17.599Z,5.65
2022-12-07T09:10:47.261Z,6.15
2022-12-07T09:13:16.395Z,7.15
2022-12-07T09:15:45.801Z,6.17
2022-12-07T09:18:16.241Z,5.07
2022-12-07T09:20:45.625Z,5.55
2022-12-07T09:23:14.847Z,7.22
2022-12-07T09:25:44.236Z,6.22
2022-12-07T09:28:13.339Z,7.13
2022-12-07T09:31:21.579Z,7.37
2022-12-07T09:33:38.694Z,6.15
2022-12-07T09:36:08.650Z,7.80
2022-12-07T09:38:37.785Z,7.45
2022-12-07T09:41:08.999Z,8.27
2022-12-07T09:43:41.069Z,9.38
2022-12-07T09:46:18.502Z,7.85
2022-12-07T09:48:50.014Z,7.97
2022-12-07T09:51:25.006Z,10.05
2022-12-07T09:53:57.272Z,9.80
2022-12-07T09:56:27.047Z,9.05
2022-12-07T09:59:01.766Z,11.90
2022-12-07T10:01:33.383Z,7.95
2022-12-07T10:04:12.753Z,8.15
2022-12-07T10:06:43.348Z,7.90
2022-12-07T10:12:01.830Z,6.57
2022-12-07T10:15:05.652Z,7.25
2022-12-07T10:17:41.671Z,7.90
2022-12-07T10:20:25.141Z,6.93
2022-12-07T10:23:02.834Z,6.85
2022-12-07T10:25:34.858Z,7.20
2022-12-07T10:28:14.010Z,7.10
2022-12-07T10:31:03.261Z,7.95
2022-12-07T10:33:37.983Z,7.05
2022-12-07T10:36:24.096Z,8.07
2022-12-07T10:38:55.074Z,5.93
2022-12-07T10:41:24.206Z,8.60
2022-12-07T10:43:55.781Z,7.67
2022-12-07T10:46:47.354Z,6.25
2022-12-07T10:49:55.718Z,6.32
2022-12-07T10:52:39.245Z,6.40
2022-12-07T10:55:22.219Z,5.35
2022-12-07T10:58:08.849Z,6.40
2022-12-07T11:00:45.728Z,4.70
2022-12-07T11:03:33.355Z,4.40
2022-12-07T11:06:16.664Z,4.18
2022-12-07T11:09:03.177Z,4.80
2022-12-07T11:11:38.747Z,4.78
2022-12-07T11:14:21.022Z,4.97
2022-12-07T11:17:00.884Z,6.40
2022-12-07T11:19:53.115Z,5.57
2022-12-07T11:22:28.934Z,6.97
2022-12-07T11:25:05.009Z,5.45
2022-12-07T11:27:43.259Z,6.78
2022-12-07T11:30:19.507Z,5.95
2022-12-07T11:33:13.270Z,6.38
2022-12-07T11:35:56.823Z,10.18
2022-12-07T11:38:35.476Z,5.68
2022-12-07T11:41:14.721Z,7.47
2022-12-07T11:43:56.966Z,7.47
2022-12-07T11:46:32.353Z,10.20
2022-12-07T11:49:10.189Z,9.90
2022-12-07T11:51:43.026Z,7.05
2022-12-07T11:54:18.385Z,8.50
2022-12-07T11:56:59.145Z,6.55
2022-12-07T11:59:34.528Z,7.63
2022-12-07T12:02:17.617Z,5.78
2022-12-07T12:04:56.299Z,8.88
2022-12-07T12:10:23.219Z,7.03
2022-12-07T12:16:45.904Z,7.88
2022-12-07T12:19:27.240Z,8.77
2022-12-07T12:22:02.904Z,8.68
2022-12-07T12:24:37.550Z,8.48
2022-12-07T12:27:10.535Z,6.22
2022-12-07T12:29:42.408Z,6.97
2022-12-07T12:32:21.248Z,6.70
2022-12-07T12:35:24.166Z,7.53
2022-12-07T12:37:55.875Z,7.70
2022-12-07T12:40:50.725Z,11.02
2022-12-07T12:43:48.722Z,7.07
2022-12-07T12:46:58.480Z,10.43
2022-12-07T12:49:38.605Z,7.15
2022-12-07T12:52:50.910Z,8.75
2022-12-07T12:55:36.872Z,10.98
2022-12-07T12:58:31.169Z,9.00
2022-12-07T13:01:47.310Z,10.57
2022-12-07T13:04:35.165Z,9.55
2022-12-07T13:07:06.887Z,10.75
2022-12-07T13:09:38.400Z,9.23
2022-12-07T13:12:14.675Z,10.23
2022-12-07T13:14:59.289Z,11.30
2022-12-07T13:18:04.328Z,12.90
2022-12-07T13:20:55.355Z,9.02
2022-12-07T13:23:36.165Z,9.13
2022-12-07T13:28:50.924Z,9.00
2022-12-07T13:31:36.027Z,10.23
2022-12-07T13:34:07.149Z,12.55
2022-12-07T13:36:40.314Z,11.40
2022-12-07T13:39:23.743Z,11.13
2022-12-07T13:41:55.952Z,12.05
2022-12-07T13:44:27.405Z,14.68
2022-12-07T13:47:08.423Z,13.05
2022-12-07T13:49:53.137Z,13.98
2022-12-07T13:52:25.929Z,12.27
2022-12-07T13:55:03.077Z,8.82
2022-12-07T13:57:35.494Z,11.73
2022-12-07T14:00:08.196Z,8.80
2022-12-07T14:02:42.584Z,10.00
2022-12-07T14:05:25.007Z,8.20
2022-12-07T14:08:00.618Z,10.32
2022-12-07T14:10:33.068Z,9.88
2022-12-07T14:13:04.298Z,12.40
2022-12-07T14:15:36.608Z,11.52
2022-12-07T14:18:06.250Z,12.63
2022-12-07T14:20:38.339Z,8.82
2022-12-07T14:23:22.925Z,8.75
2022-12-07T14:25:55.131Z,9.35
2022-12-07T14:28:32.000Z,8.65
2022-12-07T14:31:01.934Z,9.88
2022-12-07T14:33:31.164Z,11.82
2022-12-07T14:36:01.125Z,17.60
2022-12-07T14:38:30.202Z,10.57
2022-12-07T14:41:21.288Z,6.83
2022-12-07T14:44:21.270Z,7.57
2022-12-07T14:46:41.617Z,8.40
2022-12-07T14:54:50.357Z,10.80
2022-12-07T14:57:21.306Z,7.27
2022-12-07T14:59:50.455Z,7.05
2022-12-07T15:02:19.792Z,9.33
2022-12-07T15:04:49.055Z,7.85
2022-12-07T15:07:22.480Z,8.47
2022-12-07T15:09:52.140Z,6.93
2022-12-07T15:12:22.936Z,8.20
2022-12-07T15:14:52.016Z,7.78
2022-12-07T15:17:31.289Z,7.80
2022-12-07T15:20:01.227Z,6.15
2022-12-07T15:22:37.923Z,6.07
2022-12-07T15:25:08.374Z,8.43
2022-12-07T15:27:39.379Z,5.53
2022-12-07T15:30:09.779Z,5.47
2022-12-07T15:32:39.552Z,8.10
2022-12-07T15:35:09.712Z,6.32
2022-12-07T15:37:40.258Z,5.70
2022-12-07T15:40:10.742Z,8.57
2022-12-07T15:42:43.834Z,6.50
2022-12-07T15:45:14.611Z,8.45
2022-12-07T15:48:26.071Z,8.00
2022-12-07T15:50:35.836Z,9.77
2022-12-07T15:53:05.387Z,11.45
2022-12-07T15:55:34.593Z,7.38
2022-12-07T15:58:05.665Z,7.35
2022-12-07T16:00:34.852Z,6.35
2022-12-07T16:03:04.370Z,5.60
2022-12-07T16:05:34.432Z,6.43
2022-12-07T16:10:33.227Z,7.20
2022-12-07T16:13:04.354Z,5.97
2022-12-07T16:15:33.794Z,6.63
2022-12-07T16:18:03.645Z,8.57
2022-12-07T16:20:33.222Z,6.72
2022-12-07T16:23:02.961Z,5.90
2022-12-07T16:25:32.174Z,8.23
2022-12-07T16:28:05.470Z,6.33
2022-12-07T16:30:37.093Z,7.88
2022-12-07T16:33:07.071Z,6.65
2022-12-07T16:35:36.279Z,5.78
2022-12-07T16:38:05.834Z,7.43
2022-12-07T16:40:35.025Z,6.80
2022-12-07T16:43:04.901Z,7.97
2022-12-07T16:45:35.732Z,10.50
2022-12-07T16:48:05.643Z,7.65
2022-12-07T16:50:34.750Z,7.75
2022-12-07T16:53:04.339Z,10.90
2022-12-07T16:55:34.237Z,8.35
2022-12-07T16:58:05.940Z,8.95
2022-12-07T17:00:37.177Z,5.63
2022-12-07T17:03:07.134Z,8.30
2022-12-07T17:05:39.514Z,7.63
2022-12-07T17:08:09.674Z,9.63
2022-12-07T17:10:40.959Z,8.25
2022-12-07T17:13:25.500Z,6.25
2022-12-07T17:16:00.751Z,6.38
2022-12-07T17:18:31.204Z,8.57
2022-12-07T17:21:06.000Z,6.55
2022-12-07T17:23:37.010Z,6.75
2022-12-07T17:26:10.521Z,7.15
2022-12-07T17:28:40.536Z,8.27
2022-12-07T17:31:13.837Z,5.13
2022-12-07T17:33:43.434Z,7.35
2022-12-07T17:36:13.728Z,6.07
2022-12-07T17:38:44.218Z,4.38
2022-12-07T17:41:34.923Z,3.90
2022-12-07T17:44:06.395Z,5.55
2022-12-07T17:46:37.550Z,5.30
2022-12-07T17:49:07.767Z,7.20
2022-12-07T17:51:55.187Z,6.60
2022-12-07T17:54:30.292Z,7.38
2022-12-07T17:56:59.748Z,8.20
2022-12-07T17:59:29.194Z,6.68
2022-12-07T18:01:59.917Z,5.35
2022-12-07T18:04:29.408Z,6.82
2022-12-07T18:06:58.573Z,5.78
2022-12-07T18:09:28.073Z,6.07
2022-12-07T18:11:57.300Z,6.78
2022-12-07T18:14:27.100Z,6.45
2022-12-07T18:16:56.523Z,4.63
2022-12-07T18:19:27.770Z,4.28
2022-12-07T18:21:58.422Z,5.35
2022-12-07T18:24:34.799Z,5.25
2022-12-07T18:27:06.494Z,7.97
2022-12-07T18:29:36.348Z,6.57
2022-12-07T18:32:06.138Z,4.35
2022-12-07T18:34:38.479Z,5.72
2022-12-07T18:37:22.620Z,6.53
2022-12-07T18:39:52.347Z,7.10
2022-12-07T18:42:21.476Z,4.90
2022-12-07T18:44:51.097Z,4.35
2022-12-07T18:47:20.297Z,3.83
2022-12-07T18:49:51.077Z,4.65
2022-12-07T18:52:20.213Z,6.93
2022-12-07T18:54:49.639Z,8.50
2022-12-07T18:57:18.819Z,11.70
2022-12-07T18:59:49.993Z,4.43
2022-12-07T19:02:20.159Z,5.60
2022-12-07T19:04:51.657Z,4.28
2022-12-07T19:07:28.364Z,6.07
2022-12-07T19:10:17.031Z,4.72
2022-12-07T19:17:46.618Z,4.15
2022-12-07T19:20:18.003Z,6.63
2022-12-07T19:22:47.156Z,4.03
2022-12-07T19:25:16.798Z,5.13
2022-12-07T19:27:46.071Z,3.97
2022-12-07T19:30:16.087Z,8.27
2022-12-07T19:32:45.495Z,4.75
2022-12-07T19:35:16.484Z,6.68
2022-12-07T19:37:46.429Z,7.63
2022-12-07T19:40:16.026Z,4.80
2022-12-07T19:42:45.329Z,3.95
2022-12-07T19:45:14.905Z,12.70
2022-12-07T19:47:44.313Z,6.15
2022-12-07T19:50:14.208Z,5.72
2022-12-07T19:52:44.749Z,7.30
2022-12-07T19:55:14.192Z,6.50
2022-12-07T19:57:43.413Z,7.15
2022-12-07T20:00:14.009Z,7.75
2022-12-07T20:05:13.273Z,4.55
2022-12-07T20:07:43.998Z,11.30
2022-12-07T20:10:13.603Z,9.02
2022-12-07T20:13:06.521Z,10.90
2022-12-07T20:15:39.258Z,14.48
2022-12-07T20:18:08.977Z,11.63
2022-12-07T20:20:38.445Z,6.28
2022-12-07T20:23:09.036Z,6.47
2022-12-07T20:25:38.499Z,7.57
2022-12-07T20:28:07.859Z,7.72
2022-12-07T20:30:38.052Z,9.70
2022-12-07T20:33:07.785Z,8.18
2022-12-07T20:35:37.214Z,9.00
2022-12-07T20:38:06.503Z,4.75
2022-12-07T20:40:37.456Z,4.65
2022-12-07T20:43:09.593Z,5.13
2022-12-07T20:45:45.090Z,5.65
2022-12-07T20:48:14.778Z,4.78
2022-12-07T20:50:44.657Z,3.22
2022-12-07T20:53:13.807Z,3.03
2022-12-07T20:55:44.759Z,2.40
2022-12-07T20:58:14.154Z,4.07
2022-12-07T21:00:43.730Z,3.67
2022-12-07T21:03:12.872Z,4.20
2022-12-07T21:05:47.443Z,4.50
2022-12-07T21:08:19.800Z,8.18
2022-12-07T21:10:50.730Z,7.55
2022-12-07T21:13:19.854Z,6.40
2022-12-07T21:15:49.379Z,5.70
2022-12-07T21:18:18.555Z,5.25
2022-12-07T21:20:47.955Z,4.33
2022-12-07T21:23:17.079Z,5.18
2022-12-07T21:25:46.562Z,9.17
2022-12-07T21:28:17.144Z,5.82
2022-12-07T21:31:12.188Z,4.20
2022-12-07T21:33:37.250Z,4.78
2022-12-07T21:36:07.796Z,5.68
2022-12-07T21:38:37.474Z,9.07
2022-12-07T21:41:14.319Z,5.88
2022-12-07T21:43:45.647Z,10.60
2022-12-07T21:46:15.756Z,4.63
2022-12-07T21:48:45.355Z,4.15
2022-12-07T21:51:15.708Z,3.67
2022-12-07T21:53:44.999Z,3.38
2022-12-07T21:56:17.586Z,2.45
2022-12-07T21:58:49.139Z,3.90
2022-12-07T22:01:20.142Z,4.85
2022-12-07T22:03:50.215Z,3.20
2022-12-07T22:08:49.676Z,3.35
2022-12-07T22:11:20.309Z,4.88
2022-12-07T22:16:40.910Z,3.85
2022-12-07T22:19:10.591Z,3.33
2022-12-07T22:21:40.097Z,3.67
2022-12-07T22:24:11.281Z,3.70
2022-12-07T22:26:40.896Z,2.42
2022-12-07T22:29:12.074Z,2.25
2022-12-07T22:31:42.126Z,3.05
2022-12-07T22:34:16.944Z,2.50
2022-12-07T22:36:46.900Z,2.67
2022-12-07T22:39:16.127Z,2.17
2022-12-07T22:41:45.789Z,1.88
2022-12-07T22:44:16.356Z,2.03
2022-12-07T22:46:46.221Z,1.77
2022-12-07T22:49:15.401Z,2.20
2022-12-07T22:51:45.114Z,1.83
2022-12-07T22:54:18.210Z,2.30
2022-12-07T22:56:47.919Z,3.08
2022-12-07T22:59:18.681Z,2.90
2022-12-07T23:01:48.139Z,2.85
2022-12-07T23:04:17.801Z,2.95
2022-12-07T23:06:47.371Z,5.97
2022-12-07T23:09:16.462Z,3.38
2022-12-07T23:12:03.279Z,2.27
2022-12-07T23:14:36.185Z,2.83
2022-12-07T23:17:05.909Z,2.05
2022-12-07T23:19:35.080Z,2.80
2022-12-07T23:22:04.496Z,3.03
2022-12-07T23:24:33.687Z,5.03
2022-12-07T23:27:03.174Z,3.08
2022-12-07T23:29:33.654Z,3.10
2022-12-07T23:32:03.165Z,2.40
2022-12-07T23:34:32.467Z,2.45
2022-12-07T23:37:01.925Z,1.75
2022-12-07T23:39:31.143Z,3.20
2022-12-07T23:42:00.619Z,1.83
2022-12-07T23:44:29.955Z,1.90
2022-12-07T23:47:00.845Z,3.25
2022-12-07T23:49:30.247Z,2.80
2022-12-07T23:51:59.647Z,3.07
2022-12-07T23:54:28.748Z,3.60
2022-12-07T23:56:58.163Z,3.50
2022-12-07T23:59:27.234Z,5.05
